createdAt,value
2023-04-19T00:01:08.951Z,10.52
2023-04-19T00:03:35.861Z,11.65
2023-04-19T00:06:09.818Z,9.80
2023-04-19T00:08:36.552Z,10.30
2023-04-19T00:11:09.848Z,10.27
2023-04-19T00:13:49.890Z,10.13
2023-04-19T00:16:17.319Z,11.50
2023-04-19T00:18:50.845Z,9.95
2023-04-19T00:21:23.915Z,9.85
2023-04-19T00:23:50.722Z,10.38
2023-04-19T00:26:23.855Z,10.95
2023-04-19T00:28:56.877Z,9.57
2023-04-19T00:31:29.919Z,9.63
2023-04-19T00:34:03.894Z,9.02
2023-04-19T00:36:37.988Z,9.05
2023-04-19T00:39:12.071Z,9.35
2023-04-19T00:41:38.824Z,8.70
2023-04-19T00:44:11.932Z,9.88
2023-04-19T00:46:45.979Z,10.15
2023-04-19T00:49:12.796Z,9.35
2023-04-19T00:51:45.835Z,11.60
2023-04-19T00:54:20.024Z,11.15
2023-04-19T00:57:00.050Z,9.23
2023-04-19T00:59:27.091Z,10.13
2023-04-19T01:01:59.964Z,9.32
2023-04-19T01:04:27.162Z,7.97
2023-04-19T01:07:00.972Z,8.05
2023-04-19T01:09:27.680Z,9.75
2023-04-19T01:12:00.982Z,8.00
2023-04-19T01:14:27.818Z,8.55
2023-04-19T01:17:01.038Z,8.73
2023-04-19T01:19:27.758Z,8.60
2023-04-19T01:22:02.893Z,8.15
2023-04-19T01:24:30.414Z,7.97
2023-04-19T01:27:03.877Z,8.27
2023-04-19T01:29:36.875Z,7.45
2023-04-19T01:32:03.695Z,8.82
2023-04-19T01:34:36.894Z,10.10
2023-04-19T01:37:03.766Z,8.93
2023-04-19T01:39:36.934Z,7.80
2023-04-19T01:42:04.558Z,9.07
2023-04-19T01:44:38.005Z,8.82
2023-04-19T01:47:12.027Z,9.77
2023-04-19T01:49:45.844Z,7.53
2023-04-19T01:52:12.580Z,8.43
2023-04-19T01:54:52.877Z,7.30
2023-04-19T01:57:25.917Z,7.63
2023-04-19T01:59:54.385Z,8.55
2023-04-19T02:02:28.119Z,9.25
2023-04-19T02:04:54.865Z,7.82
2023-04-19T02:07:27.888Z,8.13
2023-04-19T02:09:54.657Z,8.35
2023-04-19T02:12:27.936Z,7.40
2023-04-19T02:14:57.598Z,7.05
2023-04-19T02:17:31.985Z,7.20
2023-04-19T02:19:58.715Z,9.25
2023-04-19T02:22:31.909Z,8.05
2023-04-19T02:24:59.466Z,8.20
2023-04-19T02:27:32.924Z,6.22
2023-04-19T02:29:59.679Z,7.53
2023-04-19T02:32:34.040Z,6.68
2023-04-19T02:35:01.182Z,7.15
2023-04-19T02:37:27.975Z,7.07
2023-04-19T02:40:00.950Z,6.88
2023-04-19T02:42:27.797Z,6.22
2023-04-19T02:45:00.910Z,6.50
2023-04-19T02:47:27.648Z,8.18
2023-04-19T02:50:00.926Z,9.73
2023-04-19T02:52:34.973Z,8.70
2023-04-19T02:55:07.944Z,6.30
2023-04-19T02:57:47.958Z,8.05
2023-04-19T03:00:15.414Z,6.53
2023-04-19T03:02:49.953Z,6.80
2023-04-19T03:05:23.949Z,8.85
2023-04-19T03:07:56.955Z,6.30
2023-04-19T03:10:23.774Z,7.22
2023-04-19T03:12:56.955Z,7.40
2023-04-19T03:15:23.959Z,7.55
2023-04-19T03:17:58.034Z,8.00
2023-04-19T03:20:24.859Z,5.97
2023-04-19T03:22:57.899Z,8.48
2023-04-19T03:25:24.688Z,7.20
2023-04-19T03:27:58.907Z,6.72
2023-04-19T03:30:25.667Z,6.40
2023-04-19T03:32:59.999Z,6.95
2023-04-19T03:35:26.836Z,5.75
2023-04-19T03:37:59.911Z,7.10
2023-04-19T03:40:33.021Z,8.38
2023-04-19T03:43:05.972Z,6.20
2023-04-19T03:45:38.959Z,6.25
2023-04-19T03:48:06.106Z,7.03
2023-04-19T03:50:38.927Z,7.22
2023-04-19T03:53:06.196Z,7.30
2023-04-19T03:55:46.013Z,6.00
2023-04-19T03:58:12.842Z,6.82
2023-04-19T04:00:45.898Z,6.95
2023-04-19T04:03:12.872Z,6.13
2023-04-19T04:05:46.933Z,5.10
2023-04-19T04:08:14.364Z,6.47
2023-04-19T04:10:47.953Z,6.53
2023-04-19T04:13:21.298Z,7.93
2023-04-19T04:15:48.104Z,7.53
2023-04-19T04:18:21.969Z,5.70
2023-04-19T04:20:48.645Z,5.75
2023-04-19T04:23:21.976Z,5.60
2023-04-19T04:25:56.798Z,6.22
2023-04-19T04:28:29.997Z,7.00
2023-04-19T04:30:58.152Z,7.15
2023-04-19T04:33:33.083Z,6.25
2023-04-19T04:35:59.837Z,7.95
2023-04-19T04:38:26.733Z,6.93
2023-04-19T04:41:01.024Z,6.00
2023-04-19T04:43:36.028Z,5.47
2023-04-19T04:46:25.104Z,5.15
2023-04-19T04:49:00.136Z,4.85
2023-04-19T04:51:33.933Z,7.32
2023-04-19T04:54:01.115Z,5.95
2023-04-19T04:56:41.096Z,6.32
2023-04-19T04:59:08.246Z,5.95
2023-04-19T05:01:42.354Z,4.90
2023-04-19T05:04:09.309Z,4.75
2023-04-19T05:06:43.023Z,5.57
2023-04-19T05:09:15.977Z,4.95
2023-04-19T05:11:48.960Z,4.80
2023-04-19T05:14:16.073Z,4.38
2023-04-19T05:16:49.048Z,4.35
2023-04-19T05:19:16.174Z,4.90
2023-04-19T05:21:42.874Z,4.30
2023-04-19T05:24:17.551Z,7.10
2023-04-19T05:26:44.534Z,4.40
2023-04-19T05:29:18.044Z,4.10
2023-04-19T05:31:45.065Z,4.63
2023-04-19T05:34:21.875Z,4.07
2023-04-19T05:36:50.246Z,4.17
2023-04-19T05:39:24.082Z,5.07
2023-04-19T05:41:58.065Z,5.70
2023-04-19T05:44:31.113Z,3.57
2023-04-19T05:47:04.046Z,3.90
2023-04-19T05:49:37.054Z,6.63
2023-04-19T05:52:10.054Z,4.80
2023-04-19T05:54:44.217Z,3.30
2023-04-19T05:57:24.012Z,5.27
2023-04-19T05:59:50.821Z,3.27
2023-04-19T06:02:24.143Z,3.40
2023-04-19T06:04:51.515Z,4.40
2023-04-19T06:07:31.177Z,4.07
2023-04-19T06:10:07.040Z,3.70
2023-04-19T06:12:40.104Z,4.73
2023-04-19T06:15:07.528Z,3.57
2023-04-19T06:17:41.038Z,5.83
2023-04-19T06:20:08.635Z,3.00
2023-04-19T06:22:42.024Z,4.20
2023-04-19T06:25:15.583Z,4.77
2023-04-19T06:27:49.093Z,2.63
2023-04-19T06:30:17.883Z,4.43
2023-04-19T06:32:51.063Z,3.53
2023-04-19T06:35:25.193Z,3.90
2023-04-19T06:37:52.269Z,3.23
2023-04-19T06:40:26.089Z,3.17
2023-04-19T06:42:53.643Z,4.23
2023-04-19T06:45:27.119Z,3.97
2023-04-19T06:48:00.153Z,2.63
2023-04-19T06:50:34.137Z,2.67
2023-04-19T06:53:07.093Z,3.30
2023-04-19T06:55:40.512Z,2.40
2023-04-19T06:58:17.351Z,4.57
2023-04-19T07:00:51.178Z,3.03
2023-04-19T07:03:25.197Z,4.30
2023-04-19T07:05:56.612Z,2.72
2023-04-19T07:08:46.502Z,3.38
2023-04-19T07:11:23.093Z,3.28
2023-04-19T07:13:57.120Z,3.97
2023-04-19T07:16:24.459Z,2.35
2023-04-19T07:18:58.090Z,3.67
2023-04-19T07:21:27.382Z,2.65
2023-04-19T07:24:01.070Z,4.07
2023-04-19T07:26:27.924Z,2.55
2023-04-19T07:29:01.114Z,3.88
2023-04-19T07:31:28.558Z,2.35
2023-04-19T07:34:02.212Z,3.88
2023-04-19T07:36:29.075Z,2.42
2023-04-19T07:39:02.423Z,2.33
2023-04-19T07:41:36.465Z,3.50
2023-04-19T07:44:10.152Z,3.20
2023-04-19T07:46:44.330Z,3.65
2023-04-19T07:49:18.150Z,1.90
2023-04-19T07:51:44.970Z,2.58
2023-04-19T07:54:23.128Z,2.35
2023-04-19T07:56:57.772Z,2.65
2023-04-19T07:59:31.069Z,4.07
2023-04-19T08:01:58.135Z,2.00
2023-04-19T08:04:32.412Z,2.22
2023-04-19T08:07:06.166Z,1.65
2023-04-19T08:09:34.605Z,2.67
2023-04-19T08:12:08.059Z,1.95
2023-04-19T08:14:43.904Z,2.97
2023-04-19T08:17:32.652Z,2.75
2023-04-19T08:20:08.303Z,2.92
2023-04-19T08:22:42.149Z,5.78
2023-04-19T08:25:09.647Z,2.55
2023-04-19T08:27:43.111Z,2.75
2023-04-19T08:30:11.106Z,1.90
2023-04-19T08:32:38.478Z,3.25
2023-04-19T08:35:13.221Z,4.18
2023-04-19T08:37:47.096Z,3.22
2023-04-19T08:40:14.877Z,2.63
2023-04-19T08:42:51.138Z,2.03
2023-04-19T08:45:28.233Z,3.47
2023-04-19T08:48:01.820Z,5.15
2023-04-19T08:50:45.521Z,1.60
2023-04-19T08:53:25.947Z,1.88
2023-04-19T08:56:15.169Z,2.38
2023-04-19T09:01:34.048Z,3.35
2023-04-19T09:04:17.163Z,3.35
2023-04-19T09:07:01.115Z,2.30
2023-04-19T09:12:06.160Z,2.40
2023-04-19T09:14:32.887Z,2.00
2023-04-19T09:17:26.109Z,4.25
2023-04-19T09:19:53.021Z,2.38
2023-04-19T09:22:26.069Z,3.67
2023-04-19T09:25:30.779Z,3.33
2023-04-19T09:27:46.110Z,4.97
2023-04-19T09:30:24.100Z,3.67
2023-04-19T09:33:04.251Z,2.55
2023-04-19T09:35:49.978Z,2.97
2023-04-19T09:38:24.432Z,2.53
2023-04-19T09:40:51.483Z,2.90
2023-04-19T09:46:01.984Z,2.78
2023-04-19T09:48:28.968Z,2.83
2023-04-19T09:51:11.895Z,2.72
2023-04-19T09:53:47.279Z,3.05
2023-04-19T09:56:21.187Z,6.28
2023-04-19T09:58:51.238Z,2.80
2023-04-19T10:01:32.289Z,4.32
2023-04-19T10:04:14.487Z,6.68
2023-04-19T10:07:25.425Z,3.28
2023-04-19T10:09:54.311Z,2.35
2023-04-19T10:12:58.506Z,2.80
2023-04-19T10:15:21.931Z,4.45
2023-04-19T10:17:55.082Z,3.10
2023-04-19T10:20:41.129Z,2.63
2023-04-19T10:23:16.173Z,3.10
2023-04-19T10:25:47.584Z,3.83
2023-04-19T10:28:23.230Z,4.63
2023-04-19T10:31:08.110Z,3.70
2023-04-19T10:33:36.674Z,4.78
2023-04-19T10:36:11.132Z,3.58
2023-04-19T10:39:02.224Z,5.15
2023-04-19T10:41:59.589Z,3.08
2023-04-19T10:44:33.203Z,5.82
2023-04-19T10:47:00.259Z,4.13
2023-04-19T10:49:36.136Z,5.18
2023-04-19T10:52:28.151Z,3.85
2023-04-19T10:55:04.186Z,3.28
2023-04-19T10:58:12.269Z,3.85
2023-04-19T11:00:46.153Z,4.47
2023-04-19T11:03:50.423Z,3.35
2023-04-19T11:06:34.256Z,4.18
2023-04-19T11:09:02.927Z,3.67
2023-04-19T11:11:40.505Z,3.33
2023-04-19T11:14:09.141Z,3.20
2023-04-19T11:16:46.216Z,3.38
2023-04-19T11:19:17.702Z,3.80
2023-04-19T11:21:55.185Z,2.90
2023-04-19T11:24:22.146Z,4.10
2023-04-19T11:26:55.673Z,3.15
2023-04-19T11:29:22.626Z,4.68
2023-04-19T11:31:57.184Z,3.22
2023-04-19T11:34:24.565Z,8.80
2023-04-19T11:37:00.298Z,4.45
2023-04-19T11:39:27.629Z,4.07
2023-04-19T11:42:01.168Z,2.35
2023-04-19T11:44:27.987Z,3.92
2023-04-19T11:47:08.315Z,6.07
2023-04-19T11:49:35.283Z,3.55
2023-04-19T11:52:13.362Z,2.58
2023-04-19T11:54:40.408Z,5.22
2023-04-19T11:57:20.309Z,4.53
2023-04-19T12:00:12.548Z,3.35
2023-04-19T12:02:47.356Z,4.68
2023-04-19T12:05:17.009Z,4.75
2023-04-19T12:08:09.495Z,3.67
2023-04-19T12:10:43.320Z,2.92
2023-04-19T12:13:26.210Z,3.40
2023-04-19T12:15:53.371Z,3.60
2023-04-19T12:18:20.350Z,3.63
2023-04-19T12:20:55.237Z,2.55
2023-04-19T12:23:22.113Z,2.65
2023-04-19T12:25:56.302Z,4.72
2023-04-19T12:28:23.194Z,4.10
2023-04-19T12:30:57.236Z,4.15
2023-04-19T12:33:24.116Z,3.65
2023-04-19T12:35:57.256Z,15.90
2023-04-19T12:38:23.979Z,6.60
2023-04-19T12:40:57.188Z,3.10
2023-04-19T12:43:30.246Z,3.17
2023-04-19T12:46:03.363Z,5.22
2023-04-19T12:48:37.387Z,3.10
2023-04-19T12:51:04.414Z,3.05
2023-04-19T12:53:38.199Z,2.80
2023-04-19T12:56:25.200Z,3.25
2023-04-19T12:58:58.220Z,4.28
2023-04-19T13:01:25.190Z,4.38
2023-04-19T13:03:59.528Z,3.97
2023-04-19T13:06:26.621Z,5.15
2023-04-19T13:09:01.560Z,4.47
2023-04-19T13:11:28.531Z,5.45
2023-04-19T13:14:02.330Z,3.08
2023-04-19T13:16:35.250Z,3.55
2023-04-19T13:19:08.299Z,3.60
2023-04-19T13:21:35.021Z,3.85
2023-04-19T13:24:08.275Z,4.25
2023-04-19T13:26:41.272Z,3.50
2023-04-19T13:29:08.793Z,4.43
2023-04-19T13:31:42.362Z,3.95
2023-04-19T13:34:16.468Z,7.95
2023-04-19T13:36:43.657Z,3.08
2023-04-19T13:39:17.244Z,2.83
2023-04-19T13:41:50.284Z,3.17
2023-04-19T13:44:17.189Z,3.90
2023-04-19T13:46:50.328Z,2.65
2023-04-19T13:49:18.572Z,3.97
2023-04-19T13:51:52.280Z,4.30
2023-04-19T13:54:19.956Z,2.78
2023-04-19T13:57:00.245Z,3.83
2023-04-19T13:59:26.997Z,2.92
2023-04-19T14:02:02.413Z,2.60
2023-04-19T14:04:29.406Z,4.45
2023-04-19T14:07:03.338Z,2.95
2023-04-19T14:09:36.280Z,3.78
2023-04-19T14:12:04.708Z,3.10
2023-04-19T14:14:38.321Z,3.47
2023-04-19T14:17:05.173Z,4.88
2023-04-19T14:19:38.479Z,2.80
2023-04-19T14:22:12.272Z,4.10
2023-04-19T14:24:45.347Z,4.50
2023-04-19T14:27:18.331Z,3.15
2023-04-19T14:29:45.126Z,4.07
2023-04-19T14:32:25.883Z,3.08
2023-04-19T14:34:54.325Z,2.42
2023-04-19T14:37:29.313Z,4.20
2023-04-19T14:39:56.432Z,2.70
2023-04-19T14:42:29.349Z,3.13
2023-04-19T14:44:59.072Z,4.25
2023-04-19T14:47:32.357Z,2.33
2023-04-19T14:49:59.254Z,3.13
2023-04-19T14:52:32.355Z,3.50
2023-04-19T14:55:00.361Z,2.40
2023-04-19T14:57:49.126Z,6.45
2023-04-19T15:00:23.324Z,3.00
2023-04-19T15:03:00.582Z,2.40
2023-04-19T15:05:27.857Z,2.17
2023-04-19T15:07:54.918Z,2.95
2023-04-19T15:10:28.445Z,4.28
2023-04-19T15:12:55.835Z,4.32
2023-04-19T15:15:29.320Z,3.38
2023-04-19T15:17:56.921Z,2.40
2023-04-19T15:20:30.540Z,3.15
2023-04-19T15:22:57.346Z,3.13
2023-04-19T15:25:30.388Z,5.85
2023-04-19T15:27:57.124Z,2.40
2023-04-19T15:30:23.982Z,3.15
2023-04-19T15:32:57.481Z,2.10
2023-04-19T15:35:24.446Z,3.92
2023-04-19T15:37:57.392Z,2.85
2023-04-19T15:40:31.270Z,3.40
2023-04-19T15:43:04.352Z,3.30
2023-04-19T15:45:31.234Z,2.58
2023-04-19T15:48:04.515Z,2.53
2023-04-19T15:50:31.490Z,3.42
2023-04-19T15:53:04.383Z,3.13
2023-04-19T15:55:32.116Z,2.67
2023-04-19T15:58:13.361Z,2.20
2023-04-19T16:00:46.466Z,4.80
2023-04-19T16:03:13.427Z,5.93
2023-04-19T16:05:47.446Z,2.97
2023-04-19T16:08:24.357Z,3.25
2023-04-19T16:10:51.214Z,2.47
2023-04-19T16:13:24.411Z,2.20
2023-04-19T16:15:51.176Z,2.83
2023-04-19T16:18:24.409Z,2.85
2023-04-19T16:21:00.453Z,2.17
2023-04-19T16:23:27.187Z,3.20
2023-04-19T16:26:00.369Z,2.95
2023-04-19T16:28:27.319Z,2.63
2023-04-19T16:31:00.434Z,2.53
2023-04-19T16:33:27.304Z,5.70
2023-04-19T16:36:00.372Z,2.58
2023-04-19T16:38:27.417Z,2.67
2023-04-19T16:41:01.374Z,3.60
2023-04-19T16:43:28.140Z,3.83
2023-04-19T16:46:01.452Z,3.50
2023-04-19T16:48:28.408Z,2.85
2023-04-19T16:50:55.549Z,2.80
2023-04-19T16:53:29.387Z,3.92
2023-04-19T16:56:02.341Z,3.83
2023-04-19T16:58:42.411Z,5.18
2023-04-19T17:01:09.403Z,3.70
2023-04-19T17:03:42.572Z,3.88
2023-04-19T17:06:09.371Z,3.72
2023-04-19T17:08:45.417Z,3.67
2023-04-19T17:11:12.239Z,3.42
2023-04-19T17:13:45.326Z,4.00
2023-04-19T17:16:12.215Z,3.40
2023-04-19T17:18:45.391Z,2.70
2023-04-19T17:21:16.557Z,4.93
2023-04-19T17:23:52.504Z,3.72
2023-04-19T17:26:25.332Z,4.63
2023-04-19T17:28:52.135Z,3.10
2023-04-19T17:31:25.496Z,4.25
2023-04-19T17:33:52.382Z,3.20
2023-04-19T17:36:26.430Z,5.13
2023-04-19T17:38:56.021Z,3.90
2023-04-19T17:41:29.419Z,4.28
2023-04-19T17:43:59.348Z,2.95
2023-04-19T17:46:32.646Z,3.45
2023-04-19T17:48:59.647Z,3.10
2023-04-19T17:51:33.402Z,4.03
2023-04-19T17:54:07.518Z,5.13
2023-04-19T17:56:48.564Z,4.13
2023-04-19T17:59:30.116Z,4.25
2023-04-19T18:02:03.567Z,5.70
2023-04-19T18:04:31.242Z,4.45
2023-04-19T18:07:04.607Z,5.72
2023-04-19T18:09:35.292Z,4.78
2023-04-19T18:12:09.504Z,5.72
2023-04-19T18:14:42.508Z,4.40
2023-04-19T18:17:09.556Z,4.03
2023-04-19T18:19:44.664Z,5.35
2023-04-19T18:22:14.903Z,4.55
2023-04-19T18:24:50.701Z,4.28
2023-04-19T18:27:18.055Z,3.63
2023-04-19T18:29:51.570Z,6.25
2023-04-19T18:32:18.830Z,3.03
2023-04-19T18:34:55.208Z,4.72
2023-04-19T18:37:22.131Z,4.28
2023-04-19T18:39:48.912Z,4.60
2023-04-19T18:42:22.494Z,4.30
2023-04-19T18:44:54.390Z,5.20
2023-04-19T18:47:33.476Z,3.53
2023-04-19T18:50:05.210Z,4.10
2023-04-19T18:52:42.535Z,5.72
2023-04-19T18:55:10.997Z,5.53
2023-04-19T18:57:45.515Z,4.43
2023-04-19T19:00:20.324Z,5.82
2023-04-19T19:02:53.756Z,4.47
2023-04-19T19:05:20.937Z,4.35
2023-04-19T19:07:54.772Z,6.38
2023-04-19T19:10:22.980Z,5.20
2023-04-19T19:13:14.517Z,8.05
2023-04-19T19:15:44.803Z,7.78
2023-04-19T19:18:18.488Z,6.35
2023-04-19T19:20:45.545Z,3.55
2023-04-19T19:23:20.452Z,6.97
2023-04-19T19:25:59.509Z,4.07
2023-04-19T19:28:32.481Z,5.32
2023-04-19T19:31:05.613Z,4.93
2023-04-19T19:33:40.534Z,4.85
2023-04-19T19:36:14.570Z,4.47
2023-04-19T19:38:41.631Z,3.05
2023-04-19T19:43:45.680Z,5.75
2023-04-19T19:46:22.309Z,5.05
2023-04-19T19:48:53.435Z,3.40
2023-04-19T19:51:44.079Z,3.42
2023-04-19T19:54:14.570Z,2.75
2023-04-19T19:59:39.229Z,4.70
2023-04-19T20:02:06.802Z,2.67
2023-04-19T20:04:41.724Z,2.88
2023-04-19T20:07:32.376Z,3.15
2023-04-19T20:10:06.240Z,3.38
2023-04-19T20:12:33.415Z,5.05
2023-04-19T20:15:06.581Z,4.03
2023-04-19T20:17:34.215Z,6.88
2023-04-19T20:20:12.599Z,3.42
2023-04-19T20:22:39.581Z,5.25
2023-04-19T20:25:13.549Z,5.82
2023-04-19T20:27:40.646Z,5.93
2023-04-19T20:30:15.507Z,6.22
2023-04-19T20:32:43.065Z,5.03
2023-04-19T20:35:18.594Z,2.58
2023-04-19T20:37:47.272Z,3.00
2023-04-19T20:40:25.469Z,5.00
2023-04-19T20:42:59.367Z,2.47
2023-04-19T20:45:32.658Z,3.17
2023-04-19T20:48:06.601Z,3.60
2023-04-19T20:50:33.572Z,2.45
2023-04-19T20:53:07.550Z,5.53
2023-04-19T20:55:34.785Z,5.18
2023-04-19T20:58:15.557Z,4.07
2023-04-19T21:00:42.566Z,3.25
2023-04-19T21:03:16.729Z,5.13
2023-04-19T21:05:44.894Z,2.60
2023-04-19T21:08:18.559Z,3.55
2023-04-19T21:10:45.420Z,2.92
2023-04-19T21:13:12.205Z,4.57
2023-04-19T21:15:45.520Z,3.08
2023-04-19T21:18:12.374Z,3.85
2023-04-19T21:20:46.498Z,3.17
2023-04-19T21:23:19.520Z,4.55
2023-04-19T21:25:53.572Z,2.92
2023-04-19T21:28:20.655Z,3.42
2023-04-19T21:30:54.579Z,3.22
2023-04-19T21:33:27.926Z,2.13
2023-04-19T21:36:01.577Z,2.67
2023-04-19T21:38:28.675Z,2.47
2023-04-19T21:41:02.502Z,3.38
2023-04-19T21:43:31.796Z,2.90
2023-04-19T21:46:05.620Z,3.80
2023-04-19T21:48:39.505Z,3.60
2023-04-19T21:51:13.516Z,3.10
2023-04-19T21:53:40.890Z,2.78
2023-04-19T21:56:07.951Z,2.58
2023-04-19T21:58:44.511Z,2.90
2023-04-19T22:01:11.902Z,4.28
2023-04-19T22:03:45.810Z,3.35
2023-04-19T22:06:14.166Z,3.42
2023-04-19T22:08:48.514Z,2.13
2023-04-19T22:11:15.788Z,2.72
2023-04-19T22:13:49.466Z,2.40
2023-04-19T22:16:16.332Z,3.67
2023-04-19T22:18:49.560Z,2.13
2023-04-19T22:21:22.519Z,2.83
2023-04-19T22:23:49.308Z,2.47
2023-04-19T22:26:22.546Z,3.10
2023-04-19T22:28:49.340Z,3.20
2023-04-19T22:31:22.578Z,2.30
2023-04-19T22:33:49.263Z,3.07
2023-04-19T22:36:22.532Z,2.97
2023-04-19T22:38:49.578Z,2.70
2023-04-19T22:41:22.513Z,2.50
2023-04-19T22:43:49.342Z,3.30
2023-04-19T22:46:22.585Z,3.37
2023-04-19T22:48:58.455Z,2.60
2023-04-19T22:51:31.507Z,2.40
2023-04-19T22:53:58.431Z,4.57
2023-04-19T22:56:25.265Z,3.00
2023-04-19T22:58:58.542Z,2.27
2023-04-19T23:01:25.272Z,4.30
2023-04-19T23:03:58.521Z,3.10
2023-04-19T23:06:31.789Z,3.17
2023-04-19T23:09:07.572Z,4.70
2023-04-19T23:11:41.712Z,4.57
2023-04-19T23:14:17.603Z,2.17
2023-04-19T23:16:52.689Z,4.63
2023-04-19T23:19:19.970Z,3.30
2023-04-19T23:21:53.600Z,2.50
2023-04-19T23:24:26.595Z,2.97
2023-04-19T23:26:53.272Z,5.87
2023-04-19T23:29:26.494Z,2.93
2023-04-19T23:32:00.538Z,4.27
2023-04-19T23:34:33.556Z,2.53
2023-04-19T23:37:06.543Z,2.20
2023-04-19T23:39:33.287Z,5.30
2023-04-19T23:42:06.569Z,2.20
2023-04-19T23:44:33.403Z,2.23
2023-04-19T23:47:06.553Z,3.37
2023-04-19T23:49:40.613Z,2.80
2023-04-19T23:52:07.465Z,2.97
2023-04-19T23:54:40.741Z,2.77
2023-04-19T23:57:27.511Z,5.73
